sensor_id;sensor_type;location;lat;lon;timestamp;pressure;altitude;pressure_sealevel;temperature;humidity
59690;BME280;45557;50.298;18.930;2022-11-14T00:01:30;99370.27;;;6.76;80.68
59690;BME280;45557;50.298;18.930;2022-11-14T00:07:14;99374.09;;;6.80;80.92
59690;BME280;45557;50.298;18.930;2022-11-14T00:13:09;99369.73;;;6.86;81.11
59690;BME280;45557;50.298;18.930;2022-11-14T00:18:58;99357.88;;;6.90;80.87
59690;BME280;45557;50.298;18.930;2022-11-14T00:25:00;99353.11;;;6.98;80.45
59690;BME280;45557;50.298;18.930;2022-11-14T00:31:09;99355.32;;;6.98;80.58
59690;BME280;45557;50.298;18.930;2022-11-14T00:36:54;99356.92;;;6.87;80.16
59690;BME280;45557;50.298;18.930;2022-11-14T00:42:37;99357.16;;;6.77;80.19
59690;BME280;45557;50.298;18.930;2022-11-14T00:48:19;99364.46;;;6.55;80.43
59690;BME280;45557;50.298;18.930;2022-11-14T00:54:01;99369.60;;;6.41;81.19
59690;BME280;45557;50.298;18.930;2022-11-14T00:59:43;99367.45;;;6.37;81.45
59690;BME280;45557;50.298;18.930;2022-11-14T01:05:24;99361.71;;;6.38;81.88
59690;BME280;45557;50.298;18.930;2022-11-14T01:11:10;99351.60;;;6.38;82.34
59690;BME280;45557;50.298;18.930;2022-11-14T01:16:52;99336.64;;;6.42;81.91
59690;BME280;45557;50.298;18.930;2022-11-14T01:22:34;99332.29;;;6.49;82.20
59690;BME280;45557;50.298;18.930;2022-11-14T01:28:17;99322.29;;;6.50;81.75
59690;BME280;45557;50.298;18.930;2022-11-14T01:33:59;99312.72;;;6.47;81.66
59690;BME280;45557;50.298;18.930;2022-11-14T01:39:40;99305.19;;;6.42;82.02
59690;BME280;45557;50.298;18.930;2022-11-14T01:51:48;99294.10;;;6.47;81.80
59690;BME280;45557;50.298;18.930;2022-11-14T01:57:32;99280.15;;;6.45;81.66
59690;BME280;45557;50.298;18.930;2022-11-14T02:03:16;99286.98;;;6.43;82.19
59690;BME280;45557;50.298;18.930;2022-11-14T02:08:59;99281.60;;;6.51;81.84
59690;BME280;45557;50.298;18.930;2022-11-14T02:14:44;99273.64;;;6.57;81.43
59690;BME280;45557;50.298;18.930;2022-11-14T02:20:28;99266.53;;;6.57;81.59
59690;BME280;45557;50.298;18.930;2022-11-14T02:26:14;99263.28;;;6.48;81.63
59690;BME280;45557;50.298;18.930;2022-11-14T02:31:55;99265.80;;;6.48;81.61
59690;BME280;45557;50.298;18.930;2022-11-14T02:37:36;99272.88;;;6.55;81.75
59690;BME280;45557;50.298;18.930;2022-11-14T02:43:17;99264.66;;;6.53;81.30
59690;BME280;45557;50.298;18.930;2022-11-14T02:48:58;99259.04;;;6.38;80.57
59690;BME280;45557;50.298;18.930;2022-11-14T02:54:39;99251.81;;;5.96;81.22
59690;BME280;45557;50.298;18.930;2022-11-14T03:00:20;99250.78;;;5.73;82.95
59690;BME280;45557;50.298;18.930;2022-11-14T03:06:03;99249.40;;;5.54;83.03
59690;BME280;45557;50.298;18.930;2022-11-14T03:11:45;99242.42;;;5.53;83.95
59690;BME280;45557;50.298;18.930;2022-11-14T03:17:30;99240.58;;;5.56;84.37
59690;BME280;45557;50.298;18.930;2022-11-14T03:23:11;99246.17;;;5.73;84.75
59690;BME280;45557;50.298;18.930;2022-11-14T03:28:52;99245.13;;;5.85;83.84
59690;BME280;45557;50.298;18.930;2022-11-14T03:34:34;99233.45;;;5.78;83.26
59690;BME280;45557;50.298;18.930;2022-11-14T03:40:16;99238.04;;;5.70;83.44
59690;BME280;45557;50.298;18.930;2022-11-14T03:45:58;99233.29;;;5.69;84.16
59690;BME280;45557;50.298;18.930;2022-11-14T03:51:40;99229.67;;;5.73;84.15
59690;BME280;45557;50.298;18.930;2022-11-14T03:57:26;99230.69;;;5.79;84.13
59690;BME280;45557;50.298;18.930;2022-11-14T04:03:09;99230.27;;;5.81;83.70
59690;BME280;45557;50.298;18.930;2022-11-14T04:08:55;99226.77;;;5.72;83.25
59690;BME280;45557;50.298;18.930;2022-11-14T04:14:37;99223.13;;;5.72;84.26
59690;BME280;45557;50.298;18.930;2022-11-14T04:20:20;99217.58;;;5.85;84.37
59690;BME280;45557;50.298;18.930;2022-11-14T04:26:04;99215.83;;;5.93;84.19
59690;BME280;45557;50.298;18.930;2022-11-14T04:31:44;99212.46;;;6.00;83.55
59690;BME280;45557;50.298;18.930;2022-11-14T04:37:27;99216.64;;;5.89;83.24
59690;BME280;45557;50.298;18.930;2022-11-14T04:43:09;99216.54;;;5.83;83.44
59690;BME280;45557;50.298;18.930;2022-11-14T04:48:50;99218.52;;;5.75;83.13
59690;BME280;45557;50.298;18.930;2022-11-14T04:54:34;99213.02;;;5.74;83.86
59690;BME280;45557;50.298;18.930;2022-11-14T05:00:16;99214.94;;;5.81;83.95
59690;BME280;45557;50.298;18.930;2022-11-14T05:06:00;99210.48;;;5.82;82.97
59690;BME280;45557;50.298;18.930;2022-11-14T05:11:41;99205.80;;;5.84;83.56
59690;BME280;45557;50.298;18.930;2022-11-14T05:17:24;99205.73;;;5.65;82.96
59690;BME280;45557;50.298;18.930;2022-11-14T05:23:05;99205.02;;;5.40;83.48
59690;BME280;45557;50.298;18.930;2022-11-14T05:28:45;99204.24;;;5.32;84.03
59690;BME280;45557;50.298;18.930;2022-11-14T05:34:35;99201.05;;;5.15;84.50
59690;BME280;45557;50.298;18.930;2022-11-14T05:40:17;99200.92;;;5.05;85.48
59690;BME280;45557;50.298;18.930;2022-11-14T05:46:02;99202.58;;;5.22;86.33
59690;BME280;45557;50.298;18.930;2022-11-14T05:51:43;99198.73;;;5.18;84.96
59690;BME280;45557;50.298;18.930;2022-11-14T05:57:25;99202.35;;;4.89;85.43
59690;BME280;45557;50.298;18.930;2022-11-14T06:03:07;99203.42;;;4.84;86.56
59690;BME280;45557;50.298;18.930;2022-11-14T06:08:48;99207.40;;;4.93;86.37
59690;BME280;45557;50.298;18.930;2022-11-14T06:14:29;99204.56;;;5.04;86.82
59690;BME280;45557;50.298;18.930;2022-11-14T06:20:10;99206.73;;;5.16;87.34
59690;BME280;45557;50.298;18.930;2022-11-14T06:26:00;99206.45;;;5.33;86.51
59690;BME280;45557;50.298;18.930;2022-11-14T06:32:02;99211.77;;;5.50;86.26
59690;BME280;45557;50.298;18.930;2022-11-14T06:37:43;99214.31;;;5.51;84.59
59690;BME280;45557;50.298;18.930;2022-11-14T06:43:26;99226.93;;;5.48;84.90
59690;BME280;45557;50.298;18.930;2022-11-14T06:49:10;99224.52;;;5.57;85.18
59690;BME280;45557;50.298;18.930;2022-11-14T06:55:13;99233.52;;;5.71;85.25
59690;BME280;45557;50.298;18.930;2022-11-14T07:01:55;99230.84;;;5.85;84.76
59690;BME280;45557;50.298;18.930;2022-11-14T07:08:38;99219.31;;;5.93;83.88
59690;BME280;45557;50.298;18.930;2022-11-14T07:15:07;99220.16;;;5.88;83.40
59690;BME280;45557;50.298;18.930;2022-11-14T07:20:48;99213.52;;;5.66;83.08
59690;BME280;45557;50.298;18.930;2022-11-14T07:26:30;99217.67;;;5.56;84.08
59690;BME280;45557;50.298;18.930;2022-11-14T07:32:30;99213.79;;;5.56;83.93
59690;BME280;45557;50.298;18.930;2022-11-14T07:39:13;99217.95;;;5.71;85.47
59690;BME280;45557;50.298;18.930;2022-11-14T07:45:35;99210.02;;;5.97;84.80
59690;BME280;45557;50.298;18.930;2022-11-14T07:51:18;99200.09;;;6.08;84.50
59690;BME280;45557;50.298;18.930;2022-11-14T07:56:59;99186.23;;;6.17;83.82
59690;BME280;45557;50.298;18.930;2022-11-14T08:02:40;99184.57;;;6.30;84.39
59690;BME280;45557;50.298;18.930;2022-11-14T08:08:22;99183.46;;;6.47;83.86
59690;BME280;45557;50.298;18.930;2022-11-14T08:14:23;99179.09;;;6.54;83.46
59690;BME280;45557;50.298;18.930;2022-11-14T08:20:45;99174.00;;;6.49;83.25
59690;BME280;45557;50.298;18.930;2022-11-14T08:26:34;99176.05;;;6.60;83.39
59690;BME280;45557;50.298;18.930;2022-11-14T08:32:17;99177.64;;;6.78;82.38
59690;BME280;45557;50.298;18.930;2022-11-14T08:38:45;99168.38;;;6.90;81.84
59690;BME280;45557;50.298;18.930;2022-11-14T08:44:51;99166.77;;;7.00;81.76
59690;BME280;45557;50.298;18.930;2022-11-14T08:51:34;99150.55;;;7.14;81.15
59690;BME280;45557;50.298;18.930;2022-11-14T08:58:17;99143.21;;;7.18;80.62
59690;BME280;45557;50.298;18.930;2022-11-14T09:04:52;99140.13;;;7.22;80.48
59690;BME280;45557;50.298;18.930;2022-11-14T09:10:37;99160.17;;;7.37;80.54
59690;BME280;45557;50.298;18.930;2022-11-14T09:16:49;99156.16;;;7.45;79.95
59690;BME280;45557;50.298;18.930;2022-11-14T09:22:51;99150.95;;;7.44;79.65
59690;BME280;45557;50.298;18.930;2022-11-14T09:29:14;99147.83;;;7.27;79.27
59690;BME280;45557;50.298;18.930;2022-11-14T09:34:55;99134.77;;;7.14;80.29
59690;BME280;45557;50.298;18.930;2022-11-14T09:47:13;99121.10;;;7.63;81.64
59690;BME280;45557;50.298;18.930;2022-11-14T09:53:05;99117.86;;;7.82;80.10
59690;BME280;45557;50.298;18.930;2022-11-14T09:59:08;99116.65;;;7.82;80.29
59690;BME280;45557;50.298;18.930;2022-11-14T10:32:04;99076.75;;;8.62;77.08
59690;BME280;45557;50.298;18.930;2022-11-14T10:38:34;99066.98;;;8.51;76.89
59690;BME280;45557;50.298;18.930;2022-11-14T10:44:32;99057.51;;;8.35;77.09
59690;BME280;45557;50.298;18.930;2022-11-14T10:50:56;99046.52;;;8.34;78.09
59690;BME280;45557;50.298;18.930;2022-11-14T10:56:57;99034.36;;;8.74;77.46
59690;BME280;45557;50.298;18.930;2022-11-14T11:02:59;99020.44;;;9.14;76.94
59690;BME280;45557;50.298;18.930;2022-11-14T11:09:12;99004.90;;;9.27;75.03
59690;BME280;45557;50.298;18.930;2022-11-14T11:15:31;99005.01;;;8.83;74.84
59690;BME280;45557;50.298;18.930;2022-11-14T11:21:16;98998.58;;;8.89;76.25
59690;BME280;45557;50.298;18.930;2022-11-14T11:27:32;98995.27;;;9.22;75.86
59690;BME280;45557;50.298;18.930;2022-11-14T11:34:15;98983.50;;;9.53;75.45
59690;BME280;45557;50.298;18.930;2022-11-14T11:40:37;98987.23;;;9.72;74.27
59690;BME280;45557;50.298;18.930;2022-11-14T11:47:08;98989.04;;;9.59;72.55
59690;BME280;45557;50.298;18.930;2022-11-14T12:06:58;98969.84;;;8.25;75.45
59690;BME280;45557;50.298;18.930;2022-11-14T12:13:49;98964.02;;;8.34;76.72
59690;BME280;45557;50.298;18.930;2022-11-14T12:20:29;98950.85;;;8.59;76.65
59690;BME280;45557;50.298;18.930;2022-11-14T12:27:33;98945.30;;;9.06;76.31
59690;BME280;45557;50.298;18.930;2022-11-14T12:34:30;98941.05;;;9.55;74.90
59690;BME280;45557;50.298;18.930;2022-11-14T12:41:21;98934.58;;;9.71;74.07
59690;BME280;45557;50.298;18.930;2022-11-14T12:48:22;98923.48;;;9.94;73.68
59690;BME280;45557;50.298;18.930;2022-11-14T12:55:02;98924.07;;;10.09;71.52
59690;BME280;45557;50.298;18.930;2022-11-14T13:15:23;98913.64;;;10.28;71.48
59690;BME280;45557;50.298;18.930;2022-11-14T14:12:42;98866.48;;;11.82;67.30
59690;BME280;45557;50.298;18.930;2022-11-14T14:32:15;98852.78;;;11.65;66.34
59690;BME280;45557;50.298;18.930;2022-11-14T14:38:12;98851.53;;;11.39;66.71
59690;BME280;45557;50.298;18.930;2022-11-14T14:45:00;98838.42;;;11.06;66.98
59690;BME280;45557;50.298;18.930;2022-11-14T14:51:48;98829.33;;;10.60;67.37
59690;BME280;45557;50.298;18.930;2022-11-14T15:23:27;98832.86;;;8.81;71.52
59690;BME280;45557;50.298;18.930;2022-11-14T16:26:26;98813.67;;;7.11;77.04
59690;BME280;45557;50.298;18.930;2022-11-14T16:33:27;98814.61;;;6.98;77.76
59690;BME280;45557;50.298;18.930;2022-11-14T16:39:50;98810.97;;;7.03;77.84
59690;BME280;45557;50.298;18.930;2022-11-14T16:45:39;98811.54;;;7.02;77.76
59690;BME280;45557;50.298;18.930;2022-11-14T16:51:49;98809.34;;;6.91;77.51
59690;BME280;45557;50.298;18.930;2022-11-14T16:57:41;98815.58;;;6.83;77.88
59690;BME280;45557;50.298;18.930;2022-11-14T17:09:37;98802.69;;;6.74;78.90
59690;BME280;45557;50.298;18.930;2022-11-14T17:35:47;98790.59;;;12.28;84.06
59690;BME280;45557;50.298;18.930;2022-11-14T17:42:57;98785.89;;;13.13;81.36
59690;BME280;45557;50.298;18.930;2022-11-14T17:49:02;98780.28;;;13.76;77.15
59690;BME280;45557;50.298;18.930;2022-11-14T17:55:27;98787.33;;;14.17;74.02
59690;BME280;45557;50.298;18.930;2022-11-14T18:01:57;98776.24;;;14.65;71.13
59690;BME280;45557;50.298;18.930;2022-11-14T18:07:47;98770.41;;;14.22;61.25
59690;BME280;45557;50.298;18.930;2022-11-14T18:14:00;98773.20;;;12.42;60.43
59690;BME280;45557;50.298;18.930;2022-11-14T18:20:14;98769.48;;;11.09;62.52
59690;BME280;45557;50.298;18.930;2022-11-14T18:32:26;98762.50;;;9.04;67.14
59690;BME280;45557;50.298;18.930;2022-11-14T18:38:32;98758.70;;;8.38;68.96
59690;BME280;45557;50.298;18.930;2022-11-14T18:44:57;98753.17;;;7.99;70.86
59690;BME280;45557;50.298;18.930;2022-11-14T18:51:01;98746.77;;;7.78;71.91
59690;BME280;45557;50.298;18.930;2022-11-14T18:57:44;98735.33;;;7.38;73.12
59690;BME280;45557;50.298;18.930;2022-11-14T19:04:27;98732.20;;;7.19;74.50
59690;BME280;45557;50.298;18.930;2022-11-14T19:11:15;98733.48;;;7.01;75.65
59690;BME280;45557;50.298;18.930;2022-11-14T19:18:04;98733.71;;;6.80;75.86
59690;BME280;45557;50.298;18.930;2022-11-14T19:24:28;98729.70;;;6.66;76.95
59690;BME280;45557;50.298;18.930;2022-11-14T19:31:11;98729.59;;;6.74;78.03
59690;BME280;45557;50.298;18.930;2022-11-14T19:37:58;98719.59;;;6.77;77.90
59690;BME280;45557;50.298;18.930;2022-11-14T19:44:39;98720.13;;;6.82;78.22
59690;BME280;45557;50.298;18.930;2022-11-14T19:51:25;98704.88;;;6.81;78.51
59690;BME280;45557;50.298;18.930;2022-11-14T19:58:08;98707.73;;;6.74;78.40
59690;BME280;45557;50.298;18.930;2022-11-14T20:04:54;98705.33;;;6.75;78.79
59690;BME280;45557;50.298;18.930;2022-11-14T20:11:37;98705.88;;;6.79;78.79
59690;BME280;45557;50.298;18.930;2022-11-14T20:18:19;98689.56;;;6.73;79.16
59690;BME280;45557;50.298;18.930;2022-11-14T20:25:02;98690.30;;;6.69;79.47
59690;BME280;45557;50.298;18.930;2022-11-14T20:31:26;98690.45;;;6.67;79.45
59690;BME280;45557;50.298;18.930;2022-11-14T20:37:08;98687.02;;;6.56;79.58
59690;BME280;45557;50.298;18.930;2022-11-14T20:42:51;98685.01;;;6.51;80.56
59690;BME280;45557;50.298;18.930;2022-11-14T20:48:33;98685.05;;;6.53;80.11
59690;BME280;45557;50.298;18.930;2022-11-14T20:54:14;98681.89;;;6.47;81.06
59690;BME280;45557;50.298;18.930;2022-11-14T20:59:55;98685.67;;;6.34;80.58
59690;BME280;45557;50.298;18.930;2022-11-14T21:05:37;98673.98;;;6.20;81.14
59690;BME280;45557;50.298;18.930;2022-11-14T21:11:19;98666.86;;;6.23;82.01
59690;BME280;45557;50.298;18.930;2022-11-14T21:17:02;98663.14;;;6.22;81.69
59690;BME280;45557;50.298;18.930;2022-11-14T21:22:43;98662.29;;;6.17;82.37
59690;BME280;45557;50.298;18.930;2022-11-14T21:28:23;98663.80;;;6.27;82.68
59690;BME280;45557;50.298;18.930;2022-11-14T21:34:10;98654.19;;;6.16;81.50
59690;BME280;45557;50.298;18.930;2022-11-14T21:39:51;98647.01;;;6.01;82.30
59690;BME280;45557;50.298;18.930;2022-11-14T21:45:31;98654.19;;;5.98;82.91
59690;BME280;45557;50.298;18.930;2022-11-14T21:51:17;98651.64;;;6.10;83.25
59690;BME280;45557;50.298;18.930;2022-11-14T21:56:58;98650.11;;;6.28;83.23
59690;BME280;45557;50.298;18.930;2022-11-14T22:02:44;98656.66;;;6.23;82.23
59690;BME280;45557;50.298;18.930;2022-11-14T22:08:44;98650.47;;;6.10;82.07
59690;BME280;45557;50.298;18.930;2022-11-14T22:14:26;98653.78;;;6.02;82.58
59690;BME280;45557;50.298;18.930;2022-11-14T22:26:58;98657.86;;;5.93;82.60
59690;BME280;45557;50.298;18.930;2022-11-14T22:32:38;98659.16;;;6.20;92.85
59690;BME280;45557;50.298;18.930;2022-11-14T22:38:20;98658.33;;;8.32;100.00
59690;BME280;45557;50.298;18.930;2022-11-14T22:44:00;98656.14;;;8.37;87.63
59690;BME280;45557;50.298;18.930;2022-11-14T22:49:41;98662.66;;;7.92;83.13
59690;BME280;45557;50.298;18.930;2022-11-14T22:55:21;98659.04;;;7.50;81.47
59690;BME280;45557;50.298;18.930;2022-11-14T23:01:11;98658.23;;;7.08;81.47
59690;BME280;45557;50.298;18.930;2022-11-14T23:06:52;98651.13;;;6.69;81.53
59690;BME280;45557;50.298;18.930;2022-11-14T23:12:32;98648.30;;;6.37;81.21
59690;BME280;45557;50.298;18.930;2022-11-14T23:18:13;98637.83;;;6.12;82.80
59690;BME280;45557;50.298;18.930;2022-11-14T23:23:59;98636.66;;;6.12;84.11
59690;BME280;45557;50.298;18.930;2022-11-14T23:29:40;98627.54;;;6.19;83.98
59690;BME280;45557;50.298;18.930;2022-11-14T23:35:21;98626.89;;;6.29;83.55
59690;BME280;45557;50.298;18.930;2022-11-14T23:41:01;98623.52;;;6.34;83.20
59690;BME280;45557;50.298;18.930;2022-11-14T23:46:42;98617.68;;;6.34;83.58
59690;BME280;45557;50.298;18.930;2022-11-14T23:52:22;98613.44;;;6.39;83.42
59690;BME280;45557;50.298;18.930;2022-11-14T23:58:03;98616.10;;;6.43;82.75
